createdAt,value
2024-01-24T00:00:57.369Z,11.60
2024-01-24T00:06:27.015Z,10.90
2024-01-24T00:11:36.844Z,13.60
2024-01-24T00:16:47.056Z,23.60
2024-01-24T00:21:57.563Z,12.00
2024-01-24T00:27:07.925Z,11.90
2024-01-24T00:32:17.561Z,13.10
2024-01-24T00:37:27.640Z,11.40
2024-01-24T00:42:37.490Z,14.10
2024-01-24T00:47:47.238Z,12.10
2024-01-24T00:52:57.320Z,11.00
2024-01-24T00:58:07.295Z,13.80
2024-01-24T01:03:17.143Z,17.50
2024-01-24T01:08:27.134Z,17.20
2024-01-24T01:13:37.140Z,25.30
2024-01-24T01:18:46.923Z,34.20
2024-01-24T01:23:56.890Z,30.20
2024-01-24T01:29:07.209Z,30.60
2024-01-24T01:34:17.413Z,26.20
2024-01-24T01:39:27.201Z,23.80
2024-01-24T01:44:43.966Z,13.50
2024-01-24T01:49:54.751Z,25.20
2024-01-24T01:55:05.824Z,12.40
2024-01-24T02:00:22.533Z,16.50
2024-01-24T02:05:34.114Z,11.70
2024-01-24T02:10:45.776Z,13.20
2024-01-24T02:15:55.724Z,7.70
2024-01-24T02:21:06.888Z,14.10
2024-01-24T02:26:16.792Z,15.00
2024-01-24T02:31:26.695Z,15.20
2024-01-24T02:36:36.352Z,13.80
2024-01-24T02:41:47.439Z,13.00
2024-01-24T02:46:57.829Z,11.00
2024-01-24T02:52:08.428Z,13.60
2024-01-24T02:57:18.299Z,12.60
2024-01-24T03:02:28.012Z,12.80
2024-01-24T03:07:37.987Z,10.70
2024-01-24T03:12:47.604Z,16.70
2024-01-24T03:17:57.316Z,11.40
2024-01-24T03:23:07.205Z,11.70
2024-01-24T03:28:17.033Z,11.30
2024-01-24T03:33:26.715Z,16.30
2024-01-24T03:38:36.568Z,9.00
2024-01-24T03:43:46.668Z,16.70
2024-01-24T03:48:56.684Z,10.20
2024-01-24T03:54:06.722Z,12.80
2024-01-24T03:59:16.592Z,10.50
2024-01-24T04:04:26.662Z,13.00
2024-01-24T04:09:36.578Z,10.90
2024-01-24T04:14:46.380Z,12.30
2024-01-24T04:19:56.237Z,8.40
2024-01-24T04:25:06.774Z,5.90
2024-01-24T04:30:18.467Z,8.40
2024-01-24T04:35:28.808Z,16.10
2024-01-24T04:40:38.747Z,7.80
2024-01-24T04:45:48.660Z,9.70
2024-01-24T04:50:58.421Z,10.50
2024-01-24T04:56:08.952Z,9.40
2024-01-24T05:01:18.998Z,5.90
2024-01-24T05:06:28.747Z,8.10
2024-01-24T05:11:38.524Z,8.10
2024-01-24T05:16:49.207Z,10.20
2024-01-24T05:21:59.976Z,10.80
2024-01-24T05:27:10.575Z,13.40
2024-01-24T05:32:20.463Z,10.60
2024-01-24T05:37:30.878Z,9.70
2024-01-24T05:42:40.974Z,9.10
2024-01-24T05:47:51.242Z,6.40
2024-01-24T05:53:01.029Z,5.30
2024-01-24T05:58:11.528Z,5.80
2024-01-24T06:03:21.237Z,7.50
2024-01-24T06:08:32.815Z,4.60
2024-01-24T06:13:42.846Z,6.80
2024-01-24T06:18:52.798Z,6.80
2024-01-24T06:24:02.854Z,6.90
2024-01-24T06:29:12.893Z,4.10
2024-01-24T06:34:23.456Z,3.30
2024-01-24T06:39:33.260Z,4.80
2024-01-24T06:44:43.514Z,6.10
2024-01-24T06:49:54.395Z,6.20
2024-01-24T06:55:04.456Z,6.60
2024-01-24T07:00:17.345Z,8.80
2024-01-24T07:05:27.245Z,5.80
2024-01-24T07:10:36.970Z,5.10
2024-01-24T07:15:46.978Z,3.80
2024-01-24T07:20:57.679Z,5.90
2024-01-24T07:26:07.794Z,7.10
2024-01-24T07:31:19.049Z,5.50
2024-01-24T07:36:29.495Z,5.40
2024-01-24T07:41:39.512Z,4.20
2024-01-24T07:46:49.589Z,4.50
2024-01-24T07:51:59.884Z,6.00
2024-01-24T07:57:10.197Z,4.50
2024-01-24T08:02:20.992Z,6.00
2024-01-24T08:07:34.710Z,3.00
2024-01-24T08:12:44.655Z,5.80
2024-01-24T08:17:54.648Z,5.10
2024-01-24T08:23:04.766Z,7.50
2024-01-24T08:28:14.734Z,4.20
2024-01-24T08:33:24.650Z,15.20
2024-01-24T08:38:34.474Z,8.50
2024-01-24T08:43:44.373Z,16.10
2024-01-24T08:48:54.222Z,15.20
2024-01-24T08:54:04.894Z,20.70
2024-01-24T08:59:15.001Z,14.00
2024-01-24T09:04:25.669Z,17.10
2024-01-24T09:09:39.160Z,13.10
2024-01-24T09:14:52.447Z,11.80
2024-01-24T09:20:02.644Z,15.50
2024-01-24T09:25:14.952Z,17.40
2024-01-24T09:30:26.822Z,18.90
2024-01-24T09:35:36.645Z,19.50
2024-01-24T09:40:47.200Z,21.60
2024-01-24T09:45:59.202Z,20.90
2024-01-24T09:51:10.360Z,29.80
2024-01-24T09:56:23.622Z,37.80
2024-01-24T10:01:39.211Z,34.30
2024-01-24T10:06:51.339Z,28.90
2024-01-24T10:12:01.163Z,19.60
2024-01-24T10:17:13.441Z,31.30
2024-01-24T10:22:24.491Z,24.30
2024-01-24T10:27:35.023Z,61.30
2024-01-24T10:32:49.476Z,22.90
2024-01-24T10:38:00.593Z,21.70
2024-01-24T10:43:16.493Z,18.70
2024-01-24T10:48:26.876Z,18.10
2024-01-24T10:53:39.036Z,27.20
2024-01-24T10:58:50.632Z,31.50
2024-01-24T11:04:03.832Z,30.70
2024-01-24T11:09:28.245Z,25.30
2024-01-24T11:14:38.935Z,12.40
2024-01-24T11:19:50.637Z,22.90
2024-01-24T11:25:01.075Z,18.50
2024-01-24T11:30:42.462Z,29.70
2024-01-24T11:35:55.391Z,7.90
2024-01-24T11:41:25.522Z,8.10
2024-01-24T11:46:36.306Z,9.00
2024-01-24T11:51:46.324Z,8.10
2024-01-24T11:56:56.181Z,7.20
2024-01-24T12:02:07.817Z,6.20
2024-01-24T12:07:18.060Z,6.60
2024-01-24T12:12:30.398Z,7.20
2024-01-24T12:17:43.545Z,5.90
2024-01-24T12:22:55.624Z,6.20
2024-01-24T12:28:07.184Z,11.00
2024-01-24T12:33:18.753Z,9.10
2024-01-24T12:38:29.225Z,8.00
2024-01-24T12:43:39.919Z,6.00
2024-01-24T12:48:50.286Z,7.10
2024-01-24T12:54:00.325Z,7.90
2024-01-24T12:59:10.869Z,7.10
2024-01-24T13:04:20.810Z,7.50
2024-01-24T13:09:32.905Z,8.30
2024-01-24T13:14:47.057Z,7.90
2024-01-24T13:19:56.907Z,7.20
2024-01-24T13:25:07.172Z,7.80
2024-01-24T13:30:18.454Z,6.40
2024-01-24T13:35:29.011Z,6.50
2024-01-24T13:40:40.878Z,6.80
2024-01-24T13:45:50.626Z,6.10
2024-01-24T13:51:00.879Z,6.30
2024-01-24T13:56:12.068Z,3.20
2024-01-24T14:01:22.142Z,6.80
2024-01-24T14:06:32.117Z,6.00
2024-01-24T14:11:42.240Z,4.90
2024-01-24T14:16:52.190Z,7.20
2024-01-24T14:22:02.138Z,5.70
2024-01-24T14:27:12.728Z,3.90
2024-01-24T14:32:24.289Z,6.60
2024-01-24T14:37:34.147Z,5.20
2024-01-24T14:42:44.390Z,8.60
2024-01-24T14:47:54.185Z,7.40
2024-01-24T14:53:03.828Z,5.70
2024-01-24T14:58:14.027Z,8.50
2024-01-24T15:03:24.072Z,6.50
2024-01-24T15:08:34.502Z,6.80
2024-01-24T15:13:44.713Z,7.40
2024-01-24T15:18:55.230Z,6.50
2024-01-24T15:24:07.534Z,7.40
2024-01-24T15:29:17.466Z,10.40
2024-01-24T15:34:27.657Z,9.70
2024-01-24T15:39:37.489Z,7.80
2024-01-24T15:44:47.629Z,9.10
2024-01-24T15:49:57.684Z,7.30
2024-01-24T15:55:09.053Z,7.50
2024-01-24T16:00:21.579Z,9.80
2024-01-24T16:05:43.777Z,11.00
2024-01-24T16:10:54.510Z,14.50
2024-01-24T16:16:08.256Z,19.20
2024-01-24T16:21:18.867Z,36.40
2024-01-24T16:26:29.642Z,30.30
2024-01-24T16:31:40.128Z,29.40
2024-01-24T16:36:50.169Z,33.20
2024-01-24T16:42:00.797Z,21.30
2024-01-24T16:47:11.140Z,10.20
2024-01-24T16:52:22.017Z,15.00
2024-01-24T16:57:32.117Z,16.70
2024-01-24T17:02:46.547Z,26.60
2024-01-24T17:08:01.662Z,20.20
2024-01-24T17:13:11.735Z,14.10
2024-01-24T17:18:22.335Z,17.70
2024-01-24T17:23:33.559Z,12.70
2024-01-24T17:28:43.550Z,7.00
2024-01-24T17:33:53.486Z,7.80
2024-01-24T17:39:05.776Z,30.20
2024-01-24T17:44:16.354Z,31.20
2024-01-24T17:49:26.631Z,34.10
2024-01-24T17:54:36.651Z,16.00
2024-01-24T17:59:46.723Z,8.40
2024-01-24T18:04:56.568Z,15.00
2024-01-24T18:10:07.018Z,12.10
2024-01-24T18:15:18.517Z,13.10
2024-01-24T18:20:31.533Z,6.90
2024-01-24T18:25:41.362Z,7.70
2024-01-24T18:30:53.624Z,10.10
2024-01-24T18:36:05.021Z,5.50
2024-01-24T18:41:20.240Z,7.90
2024-01-24T18:46:30.641Z,6.90
2024-01-24T18:51:40.476Z,3.60
2024-01-24T18:56:50.221Z,5.50
2024-01-24T19:02:01.222Z,4.20
2024-01-24T19:07:11.649Z,5.20
2024-01-24T19:12:21.558Z,5.60
2024-01-24T19:17:31.519Z,3.50
2024-01-24T19:22:41.636Z,5.10
2024-01-24T19:27:51.736Z,7.00
2024-01-24T19:33:01.698Z,6.40
2024-01-24T19:38:13.072Z,4.10
2024-01-24T19:43:22.955Z,3.90
2024-01-24T19:48:33.311Z,6.30
2024-01-24T19:53:43.281Z,4.40
2024-01-24T19:58:53.558Z,6.00
2024-01-24T20:04:03.495Z,4.30
2024-01-24T20:09:14.508Z,2.50
2024-01-24T20:14:24.499Z,2.40
2024-01-24T20:19:34.771Z,2.00
2024-01-24T20:24:44.523Z,2.90
2024-01-24T20:29:54.455Z,4.80
2024-01-24T20:35:04.988Z,5.30
2024-01-24T20:40:16.236Z,5.90
2024-01-24T20:45:26.497Z,3.80
2024-01-24T20:50:37.863Z,4.10
2024-01-24T20:55:47.842Z,3.30
2024-01-24T21:00:57.501Z,2.70
2024-01-24T21:06:08.980Z,2.40
2024-01-24T21:11:19.330Z,2.30
2024-01-24T21:16:29.406Z,2.50
2024-01-24T21:21:39.502Z,2.50
2024-01-24T21:26:49.595Z,2.20
2024-01-24T21:31:59.851Z,1.40
2024-01-24T21:37:09.697Z,1.70
2024-01-24T21:42:20.005Z,1.80
2024-01-24T21:47:30.053Z,1.90
2024-01-24T21:52:39.974Z,1.60
2024-01-24T21:57:52.812Z,2.50
2024-01-24T22:03:02.658Z,1.80
2024-01-24T22:08:18.485Z,2.10
2024-01-24T22:13:28.811Z,2.50
2024-01-24T22:18:44.459Z,2.20
2024-01-24T22:23:58.401Z,1.60
2024-01-24T22:29:10.581Z,2.60
2024-01-24T22:34:20.527Z,3.30
2024-01-24T22:39:30.556Z,6.20
2024-01-24T22:44:41.841Z,6.60
2024-01-24T22:49:51.797Z,3.20
2024-01-24T22:55:02.516Z,2.00
2024-01-24T23:00:15.849Z,2.90
2024-01-24T23:05:25.740Z,2.30
2024-01-24T23:10:35.973Z,3.90
2024-01-24T23:15:46.195Z,2.90
2024-01-24T23:20:56.090Z,4.70
2024-01-24T23:26:06.160Z,4.30
2024-01-24T23:31:16.825Z,2.10
2024-01-24T23:36:26.986Z,2.00
2024-01-24T23:41:39.894Z,2.20
2024-01-24T23:46:49.678Z,2.90
2024-01-24T23:51:59.534Z,3.10
2024-01-24T23:57:09.826Z,2.20
